Time;durP1;ratioP1;P1;durP2;ratioP2;P2;SDS_P1;SDS_P2;PMS_P1;PMS_P2;Temp;Humidity;BMP_temperature;BMP_pressure;BME280_temperature;BME280_humidity;BME280_pressure;Samples;Min_cycle;Max_cycle;Signal;HPM_P1;HPM_P2
2023/05/08 00:01:10;;;;;;;14.65;12.70;;;11.50;99.90;;;;;;5041427;28;20483;-55
2023/05/08 00:03:36;;;;;;;14.60;13.10;;;11.40;99.90;;;;;;5044419;28;20160;-53
2023/05/08 00:06:05;;;;;;;13.95;12.55;;;11.30;99.90;;;;;;5043765;28;20037;-54
2023/05/08 00:08:31;;;;;;;14.35;12.95;;;11.30;99.90;;;;;;5043445;28;20684;-53
2023/05/08 00:10:57;;;;;;;14.18;12.38;;;11.30;99.90;;;;;;5043451;28;20037;-56
2023/05/08 00:13:23;;;;;;;17.00;13.13;;;11.30;99.90;;;;;;5044806;28;20041;-55
2023/05/08 00:15:49;;;;;;;14.45;12.95;;;11.30;99.90;;;;;;5046432;28;20069;-57
2023/05/08 00:18:15;;;;;;;14.02;12.52;;;11.20;99.90;;;;;;5046287;28;20135;-58
2023/05/08 00:20:41;;;;;;;13.82;12.43;;;11.30;99.90;;;;;;5046429;28;20068;-57
2023/05/08 00:23:07;;;;;;;14.38;12.57;;;11.20;99.90;;;;;;5045902;28;20048;-58
2023/05/08 00:25:32;;;;;;;14.02;12.63;;;11.30;99.90;;;;;;5045588;28;20043;-48
2023/05/08 00:27:59;;;;;;;14.23;12.65;;;11.30;99.90;;;;;;5044543;28;20044;-58
2023/05/08 00:30:25;;;;;;;13.85;12.45;;;11.20;99.90;;;;;;5046133;28;20049;-55
2023/05/08 00:32:51;;;;;;;16.52;13.45;;;11.20;99.90;;;;;;5045807;28;20055;-59
2023/05/08 00:35:17;;;;;;;14.15;12.65;;;11.20;99.90;;;;;;5045700;28;20053;-51
2023/05/08 00:37:43;;;;;;;13.77;12.38;;;11.20;99.90;;;;;;5045034;28;20373;-58
2023/05/08 00:40:10;;;;;;;17.25;13.52;;;11.20;99.90;;;;;;5042823;28;20041;-48
2023/05/08 00:42:36;;;;;;;14.20;12.68;;;11.20;99.90;;;;;;5041718;28;20140;-54
2023/05/08 00:45:02;;;;;;;14.35;12.85;;;11.20;99.90;;;;;;5043065;28;20518;-54
2023/05/08 00:47:30;;;;;;;15.63;13.45;;;11.20;99.90;;;;;;5043127;28;20194;-52
2023/05/08 00:49:57;;;;;;;15.32;13.32;;;11.20;99.90;;;;;;5046076;28;20044;-56
2023/05/08 00:52:24;;;;;;;14.88;13.27;;;11.20;99.90;;;;;;5045022;28;20044;-58
2023/05/08 00:54:50;;;;;;;15.50;12.80;;;11.20;99.90;;;;;;5045179;28;20077;-55
2023/05/08 00:57:16;;;;;;;15.27;13.68;;;11.20;99.90;;;;;;5045556;28;20775;-58
2023/05/08 00:59:44;;;;;;;14.63;13.13;;;11.20;99.90;;;;;;5045319;28;20041;-49
2023/05/08 01:02:10;;;;;;;13.82;12.30;;;11.20;99.90;;;;;;5045816;28;20052;-53
2023/05/08 01:04:36;;;;;;;14.95;13.45;;;11.20;99.90;;;;;;5045638;28;20048;-56
2023/05/08 01:07:02;;;;;;;15.05;13.55;;;11.20;99.90;;;;;;5045058;28;20084;-49
2023/05/08 01:09:27;;;;;;;14.90;13.40;;;11.10;99.90;;;;;;5045204;28;20081;-57
2023/05/08 01:12:09;;;;;;;15.27;13.65;;;11.10;99.90;;;;;;5044597;28;20122;-55
2023/05/08 01:14:56;;;;;;;14.70;13.07;;;11.10;99.90;;;;;;5044671;28;20053;-56
2023/05/08 01:17:43;;;;;;;17.05;13.18;;;11.00;99.90;;;;;;5045440;28;20051;-53
2023/05/08 01:20:36;;;;;;;14.88;13.27;;;11.00;99.90;;;;;;5041965;28;20423;-58
2023/05/08 01:23:23;;;;;;;13.70;12.38;;;11.00;99.90;;;;;;5044190;28;20047;-57
2023/05/08 01:26:27;;;;;;;15.00;13.38;;;10.90;99.90;;;;;;5045030;28;20045;-55
2023/05/08 01:29:12;;;;;;;14.77;13.18;;;10.90;99.90;;;;;;5042478;28;20053;-51
2023/05/08 01:31:46;;;;;;;15.87;14.17;;;10.90;99.90;;;;;;5044131;28;20705;-55
2023/05/08 01:34:23;;;;;;;14.82;13.32;;;10.90;99.90;;;;;;5049130;28;20086;-56
2023/05/08 01:37:01;;;;;;;15.68;14.07;;;10.80;99.90;;;;;;5061513;28;20067;-58
2023/05/08 01:39:27;;;;;;;15.38;13.77;;;10.70;99.90;;;;;;5061657;28;20410;-50
2023/05/08 01:42:06;;;;;;;14.40;12.90;;;10.70;99.90;;;;;;5063441;28;20037;-58
2023/05/08 01:44:37;;;;;;;14.18;12.75;;;10.70;99.90;;;;;;5064499;28;20040;-53
2023/05/08 01:47:09;;;;;;;14.98;13.45;;;10.70;99.90;;;;;;5045630;28;20057;-59
2023/05/08 01:49:45;;;;;;;16.10;14.20;;;10.60;99.90;;;;;;5044380;28;20091;-51
2023/05/08 01:52:27;;;;;;;15.07;13.38;;;10.60;99.90;;;;;;5044253;28;20385;-57
2023/05/08 01:55:02;;;;;;;15.52;13.82;;;10.60;99.90;;;;;;5042816;28;20060;-54
2023/05/08 01:57:31;;;;;;;15.18;13.27;;;10.50;99.90;;;;;;5043006;28;20049;-59
2023/05/08 01:59:59;;;;;;;15.57;13.90;;;10.50;99.90;;;;;;5044667;28;20052;-57
2023/05/08 02:02:29;;;;;;;14.98;13.48;;;10.50;99.90;;;;;;5044288;28;20452;-58
2023/05/08 02:04:55;;;;;;;14.80;13.30;;;10.40;99.90;;;;;;5043511;28;20047;-47
2023/05/08 02:07:22;;;;;;;14.73;13.02;;;10.40;99.90;;;;;;5043716;28;20044;-54
2023/05/08 02:09:50;;;;;;;14.63;13.18;;;10.40;99.90;;;;;;5044345;28;20116;-55
2023/05/08 02:12:17;;;;;;;15.65;13.88;;;10.40;99.90;;;;;;5041440;28;20470;-58
2023/05/08 02:14:46;;;;;;;14.38;12.88;;;10.40;99.90;;;;;;5041051;28;20579;-58
2023/05/08 02:17:14;;;;;;;14.70;13.07;;;10.30;99.90;;;;;;5040519;28;20052;-57
2023/05/08 02:19:42;;;;;;;14.82;13.32;;;10.30;99.90;;;;;;5043228;28;20059;-51
2023/05/08 02:22:09;;;;;;;14.55;12.15;;;10.30;99.90;;;;;;5043596;28;20380;-48
2023/05/08 02:24:37;;;;;;;15.45;13.10;;;10.30;99.90;;;;;;5043338;28;20075;-56
2023/05/08 02:27:04;;;;;;;14.63;13.13;;;10.30;99.90;;;;;;5043626;28;20055;-59
2023/05/08 02:29:30;;;;;;;14.48;12.98;;;10.30;99.90;;;;;;5044293;28;20049;-58
2023/05/08 02:31:59;;;;;;;14.55;12.65;;;10.30;99.90;;;;;;5043924;28;20057;-53
2023/05/08 02:34:26;;;;;;;13.77;12.38;;;10.20;99.90;;;;;;5043909;28;20057;-55
2023/05/08 02:36:53;;;;;;;13.85;12.38;;;10.20;99.90;;;;;;5044144;28;20048;-50
2023/05/08 02:39:23;;;;;;;13.98;12.02;;;10.20;99.90;;;;;;5040303;28;20279;-54
2023/05/08 02:41:49;;;;;;;14.68;12.48;;;10.20;99.90;;;;;;5040178;28;20037;-51
2023/05/08 02:44:15;;;;;;;14.77;12.50;;;10.20;99.90;;;;;;5040837;28;20413;-58
2023/05/08 02:46:54;;;;;;;13.07;11.77;;;10.20;99.90;;;;;;5041115;28;20041;-47
2023/05/08 02:49:52;;;;;;;13.20;11.88;;;10.20;99.90;;;;;;5041390;28;20047;-57
2023/05/08 02:52:37;;;;;;;13.32;12.02;;;10.20;99.90;;;;;;5040159;28;20618;-59
2023/05/08 02:55:14;;;;;;;13.60;12.20;;;10.10;99.90;;;;;;5040082;28;20045;-58
2023/05/08 02:57:52;;;;;;;13.35;11.95;;;10.10;99.90;;;;;;5042327;28;20515;-57
2023/05/08 03:00:22;;;;;;;13.13;11.82;;;10.10;99.90;;;;;;5043872;28;20029;-48
2023/05/08 03:03:03;;;;;;;14.65;13.15;;;10.10;99.90;;;;;;5043241;28;20060;-58
2023/05/08 03:05:32;;;;;;;13.15;11.85;;;10.10;99.90;;;;;;5043377;28;20057;-58
2023/05/08 03:08:14;;;;;;;14.00;12.30;;;10.00;99.90;;;;;;5042916;28;20419;-56
2023/05/08 03:10:43;;;;;;;13.48;12.07;;;10.00;99.90;;;;;;5047215;28;20044;-58
2023/05/08 03:13:10;;;;;;;14.05;12.55;;;10.00;99.90;;;;;;5046512;28;20120;-53
2023/05/08 03:15:45;;;;;;;12.98;11.63;;;10.00;99.90;;;;;;5047383;28;20112;-51
2023/05/08 03:18:15;;;;;;;13.77;12.27;;;10.00;99.90;;;;;;5047652;28;20656;-57
2023/05/08 03:20:45;;;;;;;13.85;12.45;;;9.90;99.90;;;;;;5045939;28;20092;-52
2023/05/08 03:23:14;;;;;;;13.93;11.98;;;9.90;99.90;;;;;;5043738;28;20045;-57
2023/05/08 03:25:42;;;;;;;14.15;12.57;;;9.90;99.90;;;;;;5044387;28;20103;-57
2023/05/08 03:28:09;;;;;;;14.30;12.65;;;9.90;99.90;;;;;;5044023;28;20131;-56
2023/05/08 03:30:36;;;;;;;13.63;12.23;;;9.90;99.90;;;;;;5044322;28;20568;-58
2023/05/08 03:33:06;;;;;;;13.65;12.25;;;9.80;99.90;;;;;;5046774;28;20165;-53
2023/05/08 03:35:36;;;;;;;13.98;12.50;;;9.80;99.90;;;;;;5047549;28;20041;-47
2023/05/08 03:38:03;;;;;;;13.23;11.93;;;9.80;99.90;;;;;;5046430;28;20646;-57
2023/05/08 03:40:29;;;;;;;13.75;12.32;;;9.80;99.90;;;;;;5046120;28;20056;-55
2023/05/08 03:42:55;;;;;;;13.82;12.30;;;9.80;99.90;;;;;;5046738;28;20056;-58
2023/05/08 03:45:22;;;;;;;13.60;12.20;;;9.70;99.90;;;;;;5044818;28;20521;-58
2023/05/08 03:47:50;;;;;;;13.80;12.40;;;9.70;99.90;;;;;;5046384;28;20353;-55
2023/05/08 03:50:15;;;;;;;13.43;12.05;;;9.80;99.90;;;;;;5046117;28;20037;-53
2023/05/08 03:52:42;;;;;;;14.77;13.25;;;9.70;99.90;;;;;;5043424;28;20440;-53
2023/05/08 03:55:08;;;;;;;14.63;13.13;;;9.70;99.90;;;;;;5044194;28;20041;-54
2023/05/08 03:58:14;;;;;;;15.23;13.05;;;9.60;99.90;;;;;;5042877;28;20039;-54
2023/05/08 04:01:09;;;;;;;15.32;13.30;;;9.60;99.90;;;;;;5019777;28;20572;-58
2023/05/08 04:03:58;;;;;;;15.13;13.52;;;9.50;99.90;;;;;;5045729;28;20037;-58
2023/05/08 04:06:32;;;;;;;13.93;12.52;;;9.50;99.90;;;;;;5047109;28;20045;-55
2023/05/08 04:09:23;;;;;;;15.10;13.52;;;9.60;99.90;;;;;;5046730;28;20056;-56
2023/05/08 04:12:13;;;;;;;15.35;13.80;;;9.60;99.90;;;;;;5014728;28;20060;-52
2023/05/08 04:14:48;;;;;;;15.35;13.75;;;9.60;99.90;;;;;;5044993;28;20048;-58
2023/05/08 04:17:21;;;;;;;14.98;13.48;;;9.50;99.90;;;;;;5043123;28;20584;-56
2023/05/08 04:19:54;;;;;;;15.18;13.57;;;9.50;99.90;;;;;;5043217;28;20419;-58
2023/05/08 04:22:24;;;;;;;15.20;13.60;;;9.50;99.90;;;;;;5043666;28;20052;-55
2023/05/08 04:24:52;;;;;;;16.05;13.88;;;9.50;99.90;;;;;;5043066;28;20543;-57
2023/05/08 04:27:18;;;;;;;16.20;14.20;;;9.50;99.90;;;;;;5042557;28;20120;-57
2023/05/08 04:29:44;;;;;;;19.70;13.70;;;9.50;99.90;;;;;;5043427;28;20463;-55
2023/05/08 04:32:10;;;;;;;16.85;14.75;;;9.50;99.90;;;;;;5042356;28;20119;-57
2023/05/08 04:34:36;;;;;;;16.50;13.98;;;9.60;99.90;;;;;;5043141;28;20120;-59
2023/05/08 04:37:02;;;;;;;15.85;14.25;;;9.50;99.90;;;;;;5043239;28;20111;-51
2023/05/08 04:39:28;;;;;;;15.80;14.05;;;9.50;99.90;;;;;;5041352;28;20033;-55
2023/05/08 04:41:54;;;;;;;15.30;13.80;;;9.40;99.90;;;;;;5042813;28;20033;-52
2023/05/08 04:44:20;;;;;;;17.55;14.77;;;9.50;99.90;;;;;;5045312;28;20048;-52
2023/05/08 04:46:46;;;;;;;15.73;14.13;;;9.50;99.90;;;;;;5045169;28;20040;-53
2023/05/08 04:49:11;;;;;;;17.02;14.93;;;9.50;99.90;;;;;;5042985;28;20045;-54
2023/05/08 04:51:37;;;;;;;16.67;14.38;;;9.50;99.90;;;;;;5043593;28;20037;-54
2023/05/08 04:54:03;;;;;;;15.43;13.48;;;9.50;99.90;;;;;;5045530;28;20037;-51
2023/05/08 04:56:28;;;;;;;14.80;13.30;;;9.60;99.90;;;;;;5044518;28;20103;-51
2023/05/08 04:58:54;;;;;;;14.65;13.02;;;10.00;99.90;;;;;;5043395;28;20044;-54
2023/05/08 05:01:19;;;;;;;16.15;12.68;;;10.40;99.90;;;;;;5043052;28;20056;-52
2023/05/08 05:03:45;;;;;;;15.38;13.77;;;10.70;99.90;;;;;;5042477;28;20041;-56
2023/05/08 05:06:11;;;;;;;15.45;13.07;;;11.00;99.90;;;;;;5041942;28;20045;-54
2023/05/08 05:08:55;;;;;;;16.17;13.05;;;11.20;99.90;;;;;;5038227;28;20041;-55
2023/05/08 05:11:24;;;;;;;14.73;12.90;;;11.40;99.90;;;;;;5036855;28;20064;-59
2023/05/08 05:13:49;;;;;;;14.32;12.30;;;11.60;99.90;;;;;;5025696;28;20407;-56
2023/05/08 05:16:15;;;;;;;13.85;12.43;;;11.90;99.90;;;;;;5024180;28;20053;-57
2023/05/08 05:18:41;;;;;;;14.02;12.13;;;12.10;99.90;;;;;;5021895;28;20053;-55
2023/05/08 05:21:07;;;;;;;14.38;12.90;;;12.20;99.90;;;;;;5022286;28;20087;-56
2023/05/08 05:23:32;;;;;;;14.00;12.60;;;12.50;99.90;;;;;;5022285;28;20131;-58
2023/05/08 05:25:58;;;;;;;14.50;13.00;;;12.90;99.90;;;;;;5021668;28;20041;-55
2023/05/08 05:28:24;;;;;;;12.65;11.35;;;13.10;99.90;;;;;;5022056;28;20057;-56
2023/05/08 05:30:50;;;;;;;14.60;12.48;;;13.20;99.90;;;;;;5022021;28;20056;-54
2023/05/08 05:33:16;;;;;;;13.45;11.60;;;13.30;99.90;;;;;;5021529;28;20038;-51
2023/05/08 05:35:42;;;;;;;13.07;11.65;;;13.60;99.90;;;;;;5021334;28;20112;-54
2023/05/08 05:38:08;;;;;;;13.73;12.18;;;13.80;99.90;;;;;;5022325;28;20042;-48
2023/05/08 05:40:33;;;;;;;12.75;11.07;;;13.90;99.90;;;;;;5022152;28;20041;-54
2023/05/08 05:42:59;;;;;;;17.50;11.88;;;13.90;99.90;;;;;;5021286;28;20137;-54
2023/05/08 05:45:24;;;;;;;13.27;11.88;;;14.00;99.90;;;;;;5020436;28;20049;-51
2023/05/08 05:47:52;;;;;;;13.73;12.32;;;14.10;99.90;;;;;;5021874;28;20057;-55
2023/05/08 05:50:20;;;;;;;13.43;12.02;;;14.30;99.90;;;;;;5022061;28;20045;-59
2023/05/08 05:52:45;;;;;;;13.15;11.60;;;14.50;99.90;;;;;;5021151;28;20080;-58
2023/05/08 05:55:12;;;;;;;13.63;11.85;;;14.60;99.90;;;;;;5021782;28;20119;-57
2023/05/08 05:57:37;;;;;;;13.18;11.77;;;14.80;99.90;;;;;;5021164;28;20037;-58
2023/05/08 06:00:04;;;;;;;13.75;11.75;;;14.90;99.90;;;;;;5020692;28;20068;-56
2023/05/08 06:02:32;;;;;;;13.60;11.45;;;15.00;99.90;;;;;;5021522;28;20048;-56
2023/05/08 06:04:59;;;;;;;13.90;11.50;;;14.70;99.90;;;;;;5022097;28;20045;-57
2023/05/08 06:07:24;;;;;;;14.02;12.45;;;14.70;99.90;;;;;;5021457;28;20519;-53
2023/05/08 06:09:52;;;;;;;14.00;12.57;;;14.50;99.90;;;;;;5021578;28;20467;-53
2023/05/08 06:12:18;;;;;;;13.50;12.13;;;14.00;99.90;;;;;;5020831;28;20045;-56
2023/05/08 06:14:43;;;;;;;14.13;12.13;;;13.90;99.90;;;;;;5020747;28;20103;-59
2023/05/08 06:17:09;;;;;;;13.73;12.23;;;14.10;99.90;;;;;;5021313;28;20663;-55
2023/05/08 06:19:35;;;;;;;13.35;11.10;;;14.40;99.90;;;;;;5024965;28;20049;-54
2023/05/08 06:22:01;;;;;;;12.43;11.23;;;14.50;99.90;;;;;;5023259;28;20069;-50
2023/05/08 06:24:27;;;;;;;13.30;12.00;;;14.30;99.90;;;;;;5020890;28;20037;-59
2023/05/08 06:26:53;;;;;;;13.48;12.07;;;14.30;99.90;;;;;;5020359;28;20261;-51
2023/05/08 06:29:19;;;;;;;12.90;11.60;;;14.60;99.90;;;;;;5021185;28;20356;-58
2023/05/08 06:31:44;;;;;;;13.23;11.82;;;14.70;99.90;;;;;;5020829;28;20685;-56
2023/05/08 06:34:10;;;;;;;14.48;12.20;;;15.00;99.90;;;;;;5021296;28;20041;-53
2023/05/08 06:36:36;;;;;;;13.43;12.02;;;15.10;99.90;;;;;;5021693;28;20684;-57
2023/05/08 06:39:05;;;;;;;16.75;12.98;;;15.30;99.90;;;;;;5023728;28;20037;-57
2023/05/08 06:41:31;;;;;;;13.65;12.18;;;15.40;99.90;;;;;;5023258;28;20045;-53
2023/05/08 06:43:57;;;;;;;13.88;12.48;;;15.40;99.90;;;;;;5023885;28;20045;-55
2023/05/08 06:46:22;;;;;;;15.20;13.60;;;15.40;99.90;;;;;;5022795;28;20120;-55
2023/05/08 06:48:48;;;;;;;17.85;13.32;;;15.50;99.90;;;;;;5022992;28;20053;-51
2023/05/08 06:51:14;;;;;;;13.93;12.43;;;15.50;99.90;;;;;;5023584;28;20052;-51
2023/05/08 06:53:39;;;;;;;13.65;12.00;;;15.60;99.90;;;;;;5023489;28;20045;-54
2023/05/08 06:56:05;;;;;;;12.93;11.43;;;15.60;99.90;;;;;;5021820;28;20041;-53
2023/05/08 06:58:31;;;;;;;14.10;12.15;;;15.80;99.90;;;;;;5023969;28;20061;-54
2023/05/08 07:01:03;;;;;;;14.27;11.98;;;15.80;99.90;;;;;;5021859;28;20057;-54
2023/05/08 07:03:28;;;;;;;15.18;12.02;;;15.90;99.90;;;;;;5019479;28;20398;-58
2023/05/08 07:05:54;;;;;;;12.50;11.15;;;16.00;99.90;;;;;;5023811;28;20045;-55
2023/05/08 07:08:20;;;;;;;13.50;12.10;;;16.10;99.90;;;;;;5060596;28;20129;-56
2023/05/08 07:10:46;;;;;;;13.00;11.70;;;16.10;99.90;;;;;;5059860;28;20452;-52
2023/05/08 07:13:11;;;;;;;13.00;11.48;;;16.20;99.90;;;;;;5059652;28;20048;-58
2023/05/08 07:15:40;;;;;;;12.63;11.10;;;16.70;99.90;;;;;;5060732;28;20056;-58
2023/05/08 07:18:06;;;;;;;12.32;10.98;;;16.90;99.90;;;;;;5060919;28;20059;-54
2023/05/08 07:20:31;;;;;;;14.40;12.25;;;16.60;99.90;;;;;;5060391;28;20044;-53
2023/05/08 07:22:57;;;;;;;13.25;11.85;;;16.00;99.90;;;;;;5060917;28;20430;-54
2023/05/08 07:25:23;;;;;;;13.57;12.13;;;15.70;99.90;;;;;;5060331;28;20521;-52
2023/05/08 07:27:48;;;;;;;13.32;11.70;;;15.30;99.90;;;;;;5059676;28;20479;-53
2023/05/08 07:30:14;;;;;;;13.48;12.07;;;15.00;99.90;;;;;;5060940;28;20044;-51
2023/05/08 07:32:40;;;;;;;13.52;12.13;;;14.70;99.90;;;;;;5060566;28;20659;-51
2023/05/08 07:35:08;;;;;;;13.70;11.70;;;14.50;99.90;;;;;;5060244;28;20044;-55
2023/05/08 07:37:34;;;;;;;13.75;11.82;;;14.50;99.90;;;;;;5059943;28;20137;-52
2023/05/08 07:39:59;;;;;;;14.77;12.88;;;14.40;99.90;;;;;;5059233;28;20036;-54
2023/05/08 07:42:25;;;;;;;12.98;11.27;;;14.40;99.90;;;;;;5059786;28;20070;-54
2023/05/08 07:44:51;;;;;;;13.57;11.48;;;14.50;99.90;;;;;;5059782;28;20033;-57
2023/05/08 07:47:17;;;;;;;13.15;11.38;;;14.60;99.90;;;;;;5060413;28;20331;-57
2023/05/08 07:49:42;;;;;;;13.25;11.85;;;14.90;99.90;;;;;;5060069;28;20040;-55
2023/05/08 07:52:08;;;;;;;13.18;10.95;;;15.00;99.90;;;;;;5059519;28;20249;-57
2023/05/08 07:54:33;;;;;;;15.85;11.88;;;15.30;99.90;;;;;;5060253;28;20036;-58
2023/05/08 07:56:59;;;;;;;12.43;10.88;;;15.50;99.90;;;;;;5062873;28;20454;-50
2023/05/08 07:59:25;;;;;;;12.80;11.38;;;15.90;99.90;;;;;;5063695;28;21068;-58
2023/05/08 08:01:51;;;;;;;14.25;11.90;;;16.10;99.90;;;;;;5063069;28;20040;-58
2023/05/08 08:04:17;;;;;;;13.15;11.52;;;16.30;99.90;;;;;;5063705;28;20411;-57
2023/05/08 08:06:42;;;;;;;13.40;11.18;;;16.60;99.90;;;;;;5045445;28;20059;-57
2023/05/08 08:09:08;;;;;;;12.07;10.65;;;16.90;99.90;;;;;;5062670;28;20449;-59
2023/05/08 08:11:33;;;;;;;12.48;11.18;;;16.90;99.90;;;;;;5061860;28;20097;-59
2023/05/08 08:13:59;;;;;;;11.93;10.60;;;16.80;99.90;;;;;;5063167;28;20044;-59
2023/05/08 08:16:25;;;;;;;14.48;10.93;;;16.70;99.90;;;;;;5063109;28;20091;-50
2023/05/08 08:18:51;;;;;;;14.20;10.98;;;16.90;99.90;;;;;;5063436;28;21065;-58
2023/05/08 08:21:18;;;;;;;13.02;11.63;;;17.10;99.90;;;;;;5063336;28;20044;-55
2023/05/08 08:23:43;;;;;;;13.20;11.77;;;17.20;99.90;;;;;;5063000;28;20052;-54
2023/05/08 08:26:09;;;;;;;14.80;11.73;;;17.00;99.90;;;;;;5061947;28;20044;-48
2023/05/08 08:28:35;;;;;;;15.45;11.73;;;16.70;99.90;;;;;;5064159;28;20044;-54
2023/05/08 08:31:00;;;;;;;13.43;11.13;;;16.40;99.90;;;;;;5063216;28;20039;-54
2023/05/08 08:33:28;;;;;;;14.10;11.48;;;16.00;99.90;;;;;;5052832;28;20041;-52
2023/05/08 08:35:53;;;;;;;13.93;12.27;;;15.80;99.90;;;;;;5042529;28;20040;-49
2023/05/08 08:38:19;;;;;;;18.50;12.18;;;15.60;99.90;;;;;;5042646;28;20045;-55
2023/05/08 08:40:45;;;;;;;13.82;12.40;;;15.50;99.90;;;;;;5047437;28;20056;-55
2023/05/08 08:43:10;;;;;;;15.30;12.10;;;15.50;99.90;;;;;;5042543;28;20049;-55
2023/05/08 08:45:37;;;;;;;15.38;13.10;;;15.40;99.90;;;;;;5043110;28;20048;-56
2023/05/08 08:48:04;;;;;;;14.70;13.20;;;15.40;99.90;;;;;;5043065;28;20041;-54
2023/05/08 08:50:33;;;;;;;14.10;12.60;;;15.50;99.90;;;;;;5042417;28;20045;-59
2023/05/08 08:53:25;;;;;;;14.60;12.30;;;15.80;99.90;;;;;;5042638;28;20485;-58
2023/05/08 08:55:52;;;;;;;16.23;13.40;;;16.20;99.90;;;;;;5041321;28;20037;-58
2023/05/08 08:58:32;;;;;;;14.57;12.60;;;16.40;99.90;;;;;;5043225;28;20451;-57
2023/05/08 09:00:59;;;;;;;14.07;12.00;;;16.50;99.90;;;;;;5041934;28;20052;-56
2023/05/08 09:03:26;;;;;;;16.50;13.20;;;16.70;99.90;;;;;;5042632;28;20140;-56
2023/05/08 09:05:52;;;;;;;20.70;15.20;;;16.80;99.90;;;;;;5040957;28;20048;-58
2023/05/08 09:08:18;;;;;;;14.88;12.68;;;16.90;99.90;;;;;;5040283;28;20049;-59
2023/05/08 09:10:45;;;;;;;14.77;13.27;;;17.00;99.90;;;;;;5042093;28;20061;-58
2023/05/08 09:13:11;;;;;;;17.42;12.82;;;17.10;99.90;;;;;;5041083;28;20045;-55
2023/05/08 09:15:37;;;;;;;13.45;12.05;;;17.10;99.90;;;;;;5042432;28;20044;-56
2023/05/08 09:18:02;;;;;;;15.27;12.52;;;17.30;99.90;;;;;;5041500;28;20499;-56
2023/05/08 09:20:29;;;;;;;16.48;12.88;;;17.50;99.90;;;;;;5042676;28;20080;-54
2023/05/08 09:22:55;;;;;;;13.57;12.18;;;17.60;99.90;;;;;;5042129;28;20049;-56
2023/05/08 09:25:22;;;;;;;15.02;13.43;;;17.60;99.90;;;;;;5041001;28;20056;-54
2023/05/08 09:27:47;;;;;;;14.35;12.85;;;17.40;99.90;;;;;;5042145;28;20522;-55
2023/05/08 09:30:13;;;;;;;14.90;13.30;;;17.40;99.90;;;;;;5042281;28;20336;-54
2023/05/08 09:32:41;;;;;;;16.20;14.10;;;17.50;99.90;;;;;;5041581;28;20340;-58
2023/05/08 09:35:08;;;;;;;14.82;13.32;;;17.80;99.90;;;;;;5040968;28;20048;-56
2023/05/08 09:37:38;;;;;;;14.15;12.73;;;18.10;99.90;;;;;;5042099;28;20048;-59
2023/05/08 09:40:21;;;;;;;15.73;13.48;;;18.50;99.90;;;;;;5041089;28;20049;-63
2023/05/08 09:42:50;;;;;;;14.07;12.60;;;18.80;99.90;;;;;;5041860;28;20076;-62
2023/05/08 09:45:30;;;;;;;16.27;13.45;;;18.80;99.90;;;;;;5043987;28;20087;-62
2023/05/08 09:47:56;;;;;;;15.73;13.85;;;18.60;99.90;;;;;;5044689;28;20057;-63
2023/05/08 09:50:22;;;;;;;15.15;13.55;;;18.40;99.90;;;;;;5043780;28;20040;-63
2023/05/08 09:52:49;;;;;;;14.63;12.93;;;18.30;99.90;;;;;;5043468;28;20128;-61
2023/05/08 09:55:15;;;;;;;14.88;12.73;;;18.40;99.90;;;;;;5043651;28;20056;-65
2023/05/08 09:57:57;;;;;;;15.32;13.82;;;18.50;99.90;;;;;;5044652;28;20044;-67
2023/05/08 10:00:25;;;;;;;14.55;12.98;;;18.60;99.90;;;;;;5044451;28;20044;-65
2023/05/08 10:03:08;;;;;;;14.90;13.27;;;18.70;99.90;;;;;;5044038;28;20361;-65
2023/05/08 10:05:35;;;;;;;13.63;12.23;;;18.70;99.90;;;;;;5042488;28;20084;-61
2023/05/08 10:08:25;;;;;;;14.63;12.95;;;18.70;99.90;;;;;;5044710;28;20103;-66
2023/05/08 10:10:52;;;;;;;16.63;13.48;;;19.00;99.90;;;;;;5043110;28;20085;-68
2023/05/08 10:13:17;;;;;;;15.45;13.85;;;19.20;99.90;;;;;;5043952;28;20102;-64
2023/05/08 10:15:44;;;;;;;15.98;13.65;;;19.30;99.90;;;;;;5043834;28;20061;-66
2023/05/08 10:18:13;;;;;;;16.10;14.38;;;19.40;99.90;;;;;;5042993;28;20041;-64
2023/05/08 10:20:40;;;;;;;17.95;14.40;;;19.50;99.90;;;;;;5044123;28;20041;-65
2023/05/08 10:23:10;;;;;;;14.52;13.10;;;19.40;99.90;;;;;;5042590;28;20136;-61
2023/05/08 10:25:45;;;;;;;15.13;13.60;;;19.30;99.90;;;;;;5041098;28;20047;-62
2023/05/08 10:28:20;;;;;;;16.95;15.15;;;19.20;99.90;;;;;;5043271;28;20052;-67
2023/05/08 10:30:48;;;;;;;;;;;19.30;99.90;;;;;;5043406;28;20072;-64
2023/05/08 10:33:18;;;;;;;16.83;15.02;;;19.60;99.90;;;;;;5042937;28;19929;-62
2023/05/08 10:35:45;;;;;;;16.33;14.63;;;19.90;99.90;;;;;;5042299;28;20057;-62
2023/05/08 10:38:11;;;;;;;16.63;15.02;;;19.90;99.90;;;;;;5043858;28;20091;-60
2023/05/08 10:40:37;;;;;;;16.10;14.40;;;19.90;99.90;;;;;;5042534;28;20537;-58
2023/05/08 10:43:06;;;;;;;16.27;14.15;;;20.20;99.90;;;;;;5043845;28;20037;-61
2023/05/08 10:45:33;;;;;;;17.58;14.70;;;20.40;99.90;;;;;;5042507;28;20051;-64
2023/05/08 10:48:07;;;;;;;16.60;14.80;;;20.50;99.90;;;;;;5042970;28;20124;-65
2023/05/08 10:50:57;;;;;;;16.58;14.88;;;20.40;99.90;;;;;;5042929;28;20525;-60
2023/05/08 10:53:42;;;;;;;15.77;14.13;;;20.30;99.90;;;;;;5043334;28;20575;-61
2023/05/08 10:56:09;;;;;;;16.52;14.75;;;20.30;99.90;;;;;;5042032;28;20063;-57
2023/05/08 10:58:37;;;;;;;17.65;15.85;;;20.40;99.90;;;;;;5042633;28;20132;-63
2023/05/08 11:01:06;;;;;;;17.38;15.52;;;20.50;99.90;;;;;;5041442;28;20748;-61
2023/05/08 11:03:39;;;;;;;18.52;16.63;;;20.40;99.90;;;;;;5025281;28;20434;-62
2023/05/08 11:06:04;;;;;;;17.48;14.93;;;20.60;99.90;;;;;;5043883;28;20119;-63
2023/05/08 11:08:31;;;;;;;15.85;14.23;;;20.70;99.90;;;;;;5044025;28;20383;-63
2023/05/08 11:11:05;;;;;;;16.80;15.02;;;20.80;99.90;;;;;;5042703;28;20045;-63
2023/05/08 11:13:39;;;;;;;16.80;14.90;;;20.90;99.90;;;;;;5042572;28;20052;-64
2023/05/08 11:16:05;;;;;;;18.52;16.63;;;20.80;99.90;;;;;;5043607;28;20319;-58
2023/05/08 11:18:31;;;;;;;17.63;15.77;;;21.00;99.90;;;;;;5043026;28;20075;-61
2023/05/08 11:21:07;;;;;;;16.13;14.27;;;21.10;99.90;;;;;;5043218;28;20490;-60
2023/05/08 11:23:35;;;;;;;17.15;15.40;;;21.30;99.90;;;;;;5043399;28;20041;-65
2023/05/08 11:26:05;;;;;;;17.38;15.68;;;21.30;99.90;;;;;;5042473;28;20058;-62
2023/05/08 11:28:36;;;;;;;17.77;15.98;;;21.20;99.90;;;;;;5043314;28;20049;-62
2023/05/08 11:31:04;;;;;;;19.95;15.80;;;21.10;99.90;;;;;;5045292;28;20040;-64
2023/05/08 11:33:36;;;;;;;18.15;16.25;;;21.20;99.90;;;;;;5046271;28;20095;-64
2023/05/08 11:36:21;;;;;;;17.85;15.95;;;21.10;99.90;;;;;;5048399;28;20127;-60
2023/05/08 11:39:09;;;;;;;16.70;15.00;;;21.20;99.90;;;;;;5066529;28;20090;-63
2023/05/08 11:41:35;;;;;;;18.15;16.25;;;21.30;99.90;;;;;;5066507;28;20082;-63
2023/05/08 11:44:03;;;;;;;16.95;15.25;;;21.50;99.90;;;;;;5066263;28;20072;-63
2023/05/08 11:46:56;;;;;;;18.25;16.10;;;21.60;99.90;;;;;;5066335;28;20048;-59
2023/05/08 11:49:24;;;;;;;16.98;15.18;;;21.50;99.90;;;;;;5066210;28;20053;-62
2023/05/08 11:51:54;;;;;;;18.02;16.15;;;21.60;99.90;;;;;;5067299;28;20463;-62
2023/05/08 11:54:20;;;;;;;16.83;15.02;;;21.80;99.90;;;;;;5066734;28;20863;-62
2023/05/08 11:56:50;;;;;;;18.42;16.50;;;21.60;99.90;;;;;;5066381;28;20086;-55
2023/05/08 11:59:17;;;;;;;18.23;16.40;;;21.60;99.60;;;;;;5065810;28;20117;-61
2023/05/08 12:01:43;;;;;;;17.95;16.15;;;21.50;99.80;;;;;;5064019;28;20546;-63
2023/05/08 12:04:11;;;;;;;18.88;16.98;;;21.20;99.90;;;;;;5063377;28;20072;-62
2023/05/08 12:06:38;;;;;;;18.73;16.80;;;21.30;99.90;;;;;;5063402;28;20044;-58
2023/05/08 12:09:15;;;;;;;19.40;16.02;;;21.40;99.90;;;;;;5063512;28;20105;-56
2023/05/08 12:11:42;;;;;;;22.23;16.70;;;21.70;99.90;;;;;;5063016;28;20044;-58
2023/05/08 12:14:09;;;;;;;18.38;16.48;;;21.80;99.90;;;;;;5063650;28;20473;-57
2023/05/08 12:16:38;;;;;;;17.20;15.40;;;21.90;99.70;;;;;;5063113;28;20128;-57
2023/05/08 12:19:11;;;;;;;17.95;15.93;;;21.80;99.90;;;;;;5063228;28;20432;-58
2023/05/08 12:21:38;;;;;;;18.00;16.10;;;21.80;99.90;;;;;;5063242;28;20097;-61
2023/05/08 12:24:10;;;;;;;17.70;15.90;;;21.80;99.90;;;;;;5061362;28;20170;-62
2023/05/08 12:26:37;;;;;;;19.05;17.05;;;22.00;99.90;;;;;;5062574;28;20439;-61
2023/05/08 12:29:07;;;;;;;18.55;16.75;;;21.90;99.90;;;;;;5063220;28;20090;-55
2023/05/08 12:31:36;;;;;;;18.63;16.23;;;21.90;99.90;;;;;;5043259;28;20041;-63
2023/05/08 12:34:06;;;;;;;19.33;17.30;;;22.10;99.90;;;;;;5041508;28;20109;-58
2023/05/08 12:36:36;;;;;;;17.80;15.90;;;22.20;99.90;;;;;;5041222;28;20481;-59
2023/05/08 12:39:16;;;;;;;17.92;16.02;;;22.40;99.90;;;;;;5042349;28;20052;-63